Wetterstation Vordersexau
Wetterdaten: Woche 28.05.18 - 03.06.18 (KW22)
Datum Zeit Temp. A. Feuchte A. Luftdruck Regen Wind Richtung Taupunkt Windchill Windben
28.05.2018 00:00 18,8 C 78 % 1014,4 hPa 0,0 l/m 0,0 km/h S 14,9 C 18,8 C 0,0 km/h
28.05.2018 01:00 19,9 C 72 % 1014,8 hPa 0,0 l/m 0,0 km/h N-NW 14,7 C 19,9 C 0,0 km/h
28.05.2018 02:00 19,5 C 72 % 1014,7 hPa 0,0 l/m 0,0 km/h N 14,3 C 19,5 C 0,0 km/h
28.05.2018 03:00 18,5 C 77 % 1014,6 hPa 0,0 l/m 0,0 km/h O-NO 14,4 C 18,5 C 0,0 km/h
28.05.2018 04:00 17,6 C 79 % 1013,6 hPa 0,0 l/m 0,0 km/h O-SO 13,9 C 17,6 C 0,0 km/h
28.05.2018 05:00 17,6 C 80 % 1012,3 hPa 0,0 l/m 0,0 km/h S-SO 14,1 C 17,6 C 0,0 km/h
28.05.2018 06:00 18,1 C 80 % 1013,1 hPa 0,0 l/m 0,0 km/h S-SW 14,6 C 18,1 C 0,0 km/h
28.05.2018 07:00 17,9 C 82 % 1014,4 hPa 0,0 l/m 0,0 km/h S-SW 14,8 C 17,9 C 0,0 km/h
28.05.2018 08:00 19,4 C 80 % 1014,7 hPa 0,0 l/m 0,0 km/h N-NW 15,9 C 19,4 C 0,0 km/h
28.05.2018 09:00 20,8 C 77 % 1014,0 hPa 0,0 l/m 0,0 km/h N-NW 16,6 C 20,8 C 0,0 km/h
28.05.2018 10:00 22,1 C 73 % 1013,6 hPa 0,0 l/m 0,0 km/h SW 17,0 C 22,1 C 0,0 km/h
28.05.2018 11:00 24,1 C 67 % 1013,1 hPa 0,0 l/m 0,0 km/h N 17,6 C 24,1 C 0,0 km/h
28.05.2018 12:00 25,0 C 67 % 1013,0 hPa 0,0 l/m 0,0 km/h SW 18,4 C 25,0 C 0,0 km/h
28.05.2018 13:00 25,2 C 69 % 1012,3 hPa 0,0 l/m 5,8 km/h N-NW 19,1 C 25,2 C 3,2 km/h
28.05.2018 14:00 25,4 C 69 % 1011,7 hPa 0,0 l/m 0,0 km/h W-SW 19,3 C 25,4 C 0,0 km/h
28.05.2018 15:00 25,2 C 71 % 1011,7 hPa 0,0 l/m 7,1 km/h N 19,6 C 25,0 C 4,0 km/h
28.05.2018 16:00 26,6 C 65 % 1010,6 hPa 0,0 l/m 0,0 km/h W 19,5 C 26,6 C 0,0 km/h
28.05.2018 17:00 26,9 C 65 % 1010,2 hPa 0,0 l/m 0,0 km/h W 19,7 C 26,9 C 0,0 km/h
28.05.2018 18:00 26,8 C 63 % 1010,1 hPa 0,0 l/m 0,0 km/h W-NW 19,1 C 26,8 C 0,0 km/h
28.05.2018 19:00 25,9 C 67 % 1010,6 hPa 0,0 l/m 0,0 km/h NW 19,3 C 25,9 C 0,0 km/h
28.05.2018 20:00 24,6 C 72 % 1011,0 hPa 0,0 l/m 0,0 km/h NO 19,2 C 24,6 C 0,0 km/h
28.05.2018 21:00 22,1 C 78 % 1011,1 hPa 0,0 l/m 0,0 km/h NO 18,1 C 22,1 C 0,0 km/h
28.05.2018 22:00 20,6 C 80 % 1011,3 hPa 0,0 l/m 0,0 km/h NO 17,0 C 20,6 C 0,0 km/h
28.05.2018 23:00 19,7 C 81 % 1011,3 hPa 0,0 l/m 0,0 km/h W-SW 16,3 C 19,7 C 0,0 km/h
29.05.2018 00:00 20,1 C 79 % 1011,9 hPa 0,0 l/m 18,8 km/h W-SW 16,3 C 16,6 C 10,4 km/h
29.05.2018 01:00 19,3 C 75 % 1011,8 hPa 0,0 l/m 0,0 km/h N 14,8 C 19,3 C 0,0 km/h
29.05.2018 02:00 18,4 C 78 % 1011,4 hPa 0,0 l/m 0,0 km/h N 14,5 C 18,4 C 0,0 km/h
29.05.2018 03:00 17,6 C 80 % 1011,9 hPa 0,0 l/m 0,0 km/h N 14,1 C 17,6 C 0,0 km/h
29.05.2018 04:00 17,8 C 80 % 1012,3 hPa 0,0 l/m 0,0 km/h NO 14,3 C 17,8 C 0,0 km/h
29.05.2018 05:00 17,5 C 82 % 1012,1 hPa 0,0 l/m 0,0 km/h NO 14,4 C 17,5 C 0,0 km/h
29.05.2018 06:00 17,9 C 82 % 1012,6 hPa 0,0 l/m 0,0 km/h SW 14,8 C 17,9 C 0,0 km/h
29.05.2018 07:00 18,4 C 80 % 1013,0 hPa 0,0 l/m 4,5 km/h W-SW 14,9 C 18,4 C 2,5 km/h
29.05.2018 08:00 18,8 C 77 % 1013,1 hPa 0,0 l/m 12,3 km/h W-SW 14,7 C 16,6 C 6,8 km/h
29.05.2018 09:00 18,9 C 77 % 1012,8 hPa 0,0 l/m 0,0 km/h SW 14,8 C 18,9 C 0,0 km/h
29.05.2018 10:00 18,9 C 77 % 1013,2 hPa 0,0 l/m 9,7 km/h W-SW 14,8 C 17,5 C 5,4 km/h
29.05.2018 11:00 17,9 C 80 % 1013,5 hPa 0,0 l/m 7,8 km/h W-SW 14,4 C 17,2 C 4,3 km/h
29.05.2018 12:00 19,4 C 78 % 1013,3 hPa 0,0 l/m 7,1 km/h SW 15,5 C 19,1 C 4,0 km/h
29.05.2018 13:00 20,8 C 74 % 1012,9 hPa 0,0 l/m 0,0 km/h SW 16,0 C 20,8 C 0,0 km/h
29.05.2018 14:00 22,6 C 67 % 1012,4 hPa 0,0 l/m 3,9 km/h N-NW 16,2 C 22,6 C 2,2 km/h
29.05.2018 15:00 23,6 C 64 % 1011,9 hPa 0,0 l/m 0,0 km/h W-SW 16,4 C 23,6 C 0,0 km/h
29.05.2018 16:00 23,9 C 62 % 1011,0 hPa 0,0 l/m 12,3 km/h S-SW 16,2 C 22,5 C 6,8 km/h
29.05.2018 17:00 24,8 C 57 % 1010,9 hPa 0,0 l/m 3,9 km/h W 15,7 C 24,8 C 2,2 km/h
29.05.2018 18:00 24,8 C 57 % 1010,1 hPa 0,0 l/m 0,0 km/h W 15,7 C 24,8 C 0,0 km/h
29.05.2018 19:00 24,2 C 58 % 1010,1 hPa 0,0 l/m 0,0 km/h N-NW 15,4 C 24,2 C 0,0 km/h
29.05.2018 20:00 22,2 C 67 % 1010,7 hPa 0,0 l/m 0,0 km/h O-SO 15,8 C 22,2 C 0,0 km/h
29.05.2018 21:00 20,1 C 73 % 1011,5 hPa 0,0 l/m 0,0 km/h O-NO 15,1 C 20,1 C 0,0 km/h
29.05.2018 22:00 19,3 C 75 % 1011,3 hPa 0,0 l/m 0,0 km/h O-SO 14,8 C 19,3 C 0,0 km/h
29.05.2018 23:00 18,3 C 78 % 1011,2 hPa 0,0 l/m 0,0 km/h SO 14,4 C 18,3 C 0,0 km/h
30.05.2018 00:00 17,2 C 79 % 1011,3 hPa 0,0 l/m 0,0 km/h SO 13,5 C 17,2 C 0,0 km/h
30.05.2018 01:00 16,3 C 81 % 1011,9 hPa 0,0 l/m 0,0 km/h O-NO 13,0 C 16,3 C 0,0 km/h
30.05.2018 02:00 15,6 C 82 % 1012,0 hPa 0,0 l/m 0,0 km/h SO 12,5 C 15,6 C 0,0 km/h
30.05.2018 03:00 15,0 C 83 % 1012,3 hPa 0,0 l/m 0,0 km/h O-SO 12,1 C 15,0 C 0,0 km/h
30.05.2018 04:00 14,9 C 83 % 1011,6 hPa 0,0 l/m 0,0 km/h O-NO 12,0 C 14,9 C 0,0 km/h
30.05.2018 05:00 14,9 C 83 % 1011,8 hPa 0,0 l/m 0,0 km/h SO 12,0 C 14,9 C 0,0 km/h
30.05.2018 06:00 15,6 C 82 % 1011,9 hPa 0,0 l/m 0,0 km/h SO 12,5 C 15,6 C 0,0 km/h
30.05.2018 07:00 17,5 C 79 % 1012,5 hPa 0,0 l/m 0,0 km/h SO 13,8 C 17,5 C 0,0 km/h
30.05.2018 08:00 19,6 C 75 % 1012,7 hPa 0,0 l/m 0,0 km/h W 15,0 C 19,6 C 0,0 km/h
30.05.2018 09:00 21,3 C 70 % 1012,8 hPa 0,0 l/m 0,0 km/h W-SW 15,6 C 21,3 C 0,0 km/h
30.05.2018 10:00 22,8 C 63 % 1012,2 hPa 0,0 l/m 0,0 km/h W-NW 15,4 C 22,8 C 0,0 km/h
30.05.2018 11:00 25,0 C 56 % 1012,0 hPa 0,0 l/m 0,0 km/h NW 15,6 C 25,0 C 0,0 km/h
30.05.2018 12:00 25,9 C 55 % 1011,4 hPa 0,0 l/m 0,0 km/h N-NO 16,2 C 25,9 C 0,0 km/h
30.05.2018 13:00 27,3 C 52 % 1010,8 hPa 0,0 l/m 0,0 km/h NW 16,6 C 27,3 C 0,0 km/h
30.05.2018 14:00 27,4 C 51 % 1010,4 hPa 0,0 l/m 0,0 km/h N-NW 16,3 C 27,4 C 0,0 km/h
30.05.2018 15:00 28,4 C 50 % 1009,5 hPa 0,0 l/m 0,0 km/h N-NW 17,0 C 28,4 C 0,0 km/h
30.05.2018 16:00 28,8 C 49 % 1008,9 hPa 0,0 l/m 8,4 km/h W-NW 17,0 C 28,5 C 4,7 km/h
30.05.2018 17:00 27,5 C 51 % 1008,3 hPa 0,0 l/m 1,9 km/h N 16,4 C 27,5 C 1,1 km/h
30.05.2018 18:00 25,8 C 58 % 1008,6 hPa 0,0 l/m 0,0 km/h SO 16,9 C 25,8 C 0,0 km/h
30.05.2018 19:00 22,9 C 73 % 1009,1 hPa 1,6 l/m 0,0 km/h SO 17,8 C 22,9 C 0,0 km/h
30.05.2018 20:00 21,2 C 78 % 1009,5 hPa 0,0 l/m 0,0 km/h O-NO 17,2 C 21,2 C 0,0 km/h
30.05.2018 21:00 20,2 C 81 % 1010,1 hPa 0,0 l/m 0,0 km/h NO 16,8 C 20,2 C 0,0 km/h
30.05.2018 22:00 19,5 C 82 % 1009,5 hPa 0,5 l/m 0,0 km/h NW 16,3 C 19,5 C 0,0 km/h
30.05.2018 23:00 19,1 C 82 % 1011,6 hPa 0,0 l/m 0,0 km/h W-SW 16,0 C 19,1 C 0,0 km/h
31.05.2018 00:00 18,8 C 82 % 1012,2 hPa 0,0 l/m 0,0 km/h W-SW 15,7 C 18,8 C 0,0 km/h
31.05.2018 01:00 18,4 C 82 % 1012,9 hPa 0,0 l/m 0,0 km/h N-NW 15,3 C 18,4 C 0,0 km/h
31.05.2018 02:00 17,9 C 83 % 1012,1 hPa 0,5 l/m 0,0 km/h N-NW 15,0 C 17,9 C 0,0 km/h
31.05.2018 03:00 17,6 C 83 % 1011,6 hPa 0,0 l/m 0,0 km/h N 14,7 C 17,6 C 0,0 km/h
31.05.2018 04:00 17,1 C 82 % 1011,3 hPa 0,0 l/m 0,0 km/h N 14,0 C 17,1 C 0,0 km/h
31.05.2018 05:00 16,4 C 83 % 1011,2 hPa 0,0 l/m 0,0 km/h N 13,5 C 16,4 C 0,0 km/h
31.05.2018 06:00 16,7 C 82 % 1011,4 hPa 0,0 l/m 0,0 km/h W-SW 13,6 C 16,7 C 0,0 km/h
31.05.2018 07:00 16,9 C 80 % 1012,0 hPa 0,0 l/m 0,0 km/h W-SW 13,4 C 16,9 C 0,0 km/h
31.05.2018 08:00 17,7 C 82 % 1012,6 hPa 0,0 l/m 0,0 km/h W-SW 14,6 C 17,7 C 0,0 km/h
31.05.2018 09:00 18,3 C 83 % 1013,0 hPa 0,0 l/m 0,0 km/h S 15,4 C 18,3 C 0,0 km/h
31.05.2018 10:00 20,1 C 83 % 1013,4 hPa 0,0 l/m 0,0 km/h W 17,1 C 20,1 C 0,0 km/h
31.05.2018 11:00 22,4 C 77 % 1013,2 hPa 0,0 l/m 0,0 km/h O-SO 18,2 C 22,4 C 0,0 km/h
31.05.2018 12:00 22,9 C 73 % 1013,2 hPa 0,0 l/m 0,0 km/h N-NO 17,8 C 22,9 C 0,0 km/h
31.05.2018 13:00 24,7 C 65 % 1012,5 hPa 0,0 l/m 0,0 km/h W-NW 17,7 C 24,7 C 0,0 km/h
31.05.2018 14:00 25,5 C 62 % 1011,9 hPa 0,0 l/m 0,0 km/h W 17,7 C 25,5 C 0,0 km/h
31.05.2018 15:00 25,8 C 62 % 1011,5 hPa 0,0 l/m 11,0 km/h NW 18,0 C 24,9 C 6,1 km/h
31.05.2018 16:00 26,4 C 59 % 1011,2 hPa 0,0 l/m 3,2 km/h N-NW 17,7 C 26,4 C 1,8 km/h
31.05.2018 17:00 24,8 C 64 % 1011,2 hPa 0,0 l/m 0,0 km/h NW 17,5 C 24,8 C 0,0 km/h
31.05.2018 18:00 22,6 C 73 % 1011,2 hPa 0,0 l/m 0,0 km/h S-SO 17,5 C 22,6 C 0,0 km/h
31.05.2018 19:00 21,9 C 78 % 1010,7 hPa 0,5 l/m 0,0 km/h W-SW 17,9 C 21,9 C 0,0 km/h
31.05.2018 20:00 17,9 C 79 % 1013,1 hPa 0,0 l/m 22,0 km/h S 14,2 C 13,1 C 12,2 km/h
31.05.2018 21:00 15,9 C 83 % 1014,5 hPa 4,7 l/m 27,9 km/h O 13,0 C 9,3 C 15,5 km/h
31.05.2018 22:00 15,9 C 81 % 1014,8 hPa 3,1 l/m 0,0 km/h SW 12,6 C 15,9 C 0,0 km/h
31.05.2018 23:00 15,9 C 79 % 1014,4 hPa 2,1 l/m 13,6 km/h SW 12,3 C 12,7 C 7,6 km/h
01.06.2018 00:00 15,3 C 75 % 1014,7 hPa 0,0 l/m 0,0 km/h O 10,9 C 15,3 C 0,0 km/h
01.06.2018 01:00 15,6 C 76 % 1015,8 hPa 0,0 l/m 0,0 km/h O-NO 11,4 C 15,6 C 0,0 km/h
01.06.2018 02:00 15,5 C 76 % 1015,5 hPa 0,0 l/m 0,0 km/h O-NO 11,3 C 15,5 C 0,0 km/h
01.06.2018 03:00 15,2 C 75 % 1015,3 hPa 0,0 l/m 0,0 km/h O-NO 10,8 C 15,2 C 0,0 km/h
01.06.2018 04:00 14,6 C 75 % 1015,2 hPa 0,0 l/m 0,0 km/h O-NO 10,2 C 14,6 C 0,0 km/h
01.06.2018 05:00 14,1 C 74 % 1015,7 hPa 0,0 l/m 0,0 km/h O-NO 9,5 C 14,1 C 0,0 km/h
01.06.2018 06:00 14,4 C 71 % 1015,9 hPa 0,0 l/m 0,0 km/h O-NO 9,2 C 14,4 C 0,0 km/h
01.06.2018 07:00 16,3 C 78 % 1016,1 hPa 0,0 l/m 0,0 km/h SW 12,5 C 16,3 C 0,0 km/h
01.06.2018 08:00 17,9 C 83 % 1016,5 hPa 0,0 l/m 7,8 km/h W 15,0 C 17,2 C 4,3 km/h
01.06.2018 09:00 19,0 C 80 % 1016,6 hPa 0,0 l/m 5,2 km/h SW 15,5 C 19,0 C 2,9 km/h
01.06.2018 10:00 20,3 C 76 % 1016,3 hPa 0,0 l/m 18,8 km/h W 15,9 C 16,8 C 10,4 km/h
01.06.2018 11:00 21,4 C 70 % 1016,6 hPa 0,0 l/m 11,7 km/h SW 15,7 C 19,7 C 6,5 km/h
01.06.2018 12:00 22,1 C 68 % 1016,6 hPa 0,0 l/m 3,2 km/h W-SW 15,9 C 22,1 C 1,8 km/h
01.06.2018 13:00 23,2 C 63 % 1016,0 hPa 0,0 l/m 0,0 km/h W-SW 15,8 C 23,2 C 0,0 km/h
01.06.2018 14:00 24,1 C 59 % 1015,8 hPa 0,0 l/m 22,7 km/h SW 15,6 C 21,2 C 12,6 km/h
01.06.2018 15:00 24,4 C 57 % 1015,4 hPa 0,0 l/m 1,9 km/h SW 15,3 C 24,4 C 1,1 km/h
01.06.2018 16:00 25,0 C 52 % 1015,0 hPa 0,0 l/m 0,0 km/h NW 14,4 C 25,0 C 0,0 km/h
01.06.2018 17:00 24,6 C 55 % 1014,9 hPa 0,0 l/m 0,0 km/h O-NO 14,9 C 24,6 C 0,0 km/h
01.06.2018 18:00 17,4 C 80 % 1015,8 hPa 7,3 l/m 0,0 km/h O 13,9 C 17,4 C 0,0 km/h
01.06.2018 19:00 17,6 C 83 % 1016,3 hPa 0,0 l/m 0,0 km/h O-NO 14,7 C 17,6 C 0,0 km/h
01.06.2018 20:00 17,8 C 83 % 1016,0 hPa 0,0 l/m 0,0 km/h O-NO 14,9 C 17,8 C 0,0 km/h
01.06.2018 21:00 17,3 C 83 % 1017,0 hPa 0,0 l/m 0,0 km/h O-NO 14,4 C 17,3 C 0,0 km/h
01.06.2018 22:00 16,8 C 82 % 1017,2 hPa 0,0 l/m 0,0 km/h O-NO 13,7 C 16,8 C 0,0 km/h
01.06.2018 23:00 16,5 C 81 % 1017,5 hPa 0,0 l/m 0,0 km/h O-NO 13,2 C 16,5 C 0,0 km/h
02.06.2018 00:00 15,5 C 80 % 1017,5 hPa 0,0 l/m 0,0 km/h O-NO 12,1 C 15,5 C 0,0 km/h
02.06.2018 01:00 15,0 C 79 % 1017,0 hPa 0,0 l/m 0,0 km/h O-NO 11,4 C 15,0 C 0,0 km/h
02.06.2018 02:00 14,6 C 79 % 1017,1 hPa 0,0 l/m 0,0 km/h O 11,0 C 14,6 C 0,0 km/h
02.06.2018 03:00 14,3 C 77 % 1017,1 hPa 0,0 l/m 0,0 km/h O-SO 10,3 C 14,3 C 0,0 km/h
02.06.2018 04:00 13,9 C 78 % 1017,2 hPa 0,0 l/m 0,0 km/h O 10,1 C 13,9 C 0,0 km/h
02.06.2018 05:00 13,7 C 78 % 1017,5 hPa 0,0 l/m 0,0 km/h O-SO 9,9 C 13,7 C 0,0 km/h
02.06.2018 06:00 14,4 C 75 % 1017,2 hPa 0,0 l/m 0,0 km/h SO 10,0 C 14,4 C 0,0 km/h
02.06.2018 07:00 15,6 C 77 % 1017,2 hPa 0,0 l/m 9,7 km/h O-NO 11,6 C 13,9 C 5,4 km/h
02.06.2018 08:00 17,3 C 80 % 1017,3 hPa 0,0 l/m 0,0 km/h W-NW 13,8 C 17,3 C 0,0 km/h
02.06.2018 09:00 18,8 C 83 % 1017,4 hPa 0,0 l/m 0,0 km/h S 15,8 C 18,8 C 0,0 km/h
02.06.2018 10:00 20,3 C 82 % 1017,0 hPa 0,0 l/m 0,0 km/h S 17,1 C 20,3 C 0,0 km/h
02.06.2018 11:00 22,1 C 74 % 1017,0 hPa 0,0 l/m 0,0 km/h W 17,2 C 22,1 C 0,0 km/h
02.06.2018 12:00 22,9 C 68 % 1016,7 hPa 0,0 l/m 15,6 km/h N-NW 16,7 C 20,7 C 8,6 km/h
02.06.2018 13:00 23,5 C 61 % 1016,3 hPa 0,0 l/m 0,0 km/h N-NO 15,5 C 23,5 C 0,0 km/h
02.06.2018 14:00 24,7 C 59 % 1015,7 hPa 0,0 l/m 8,4 km/h N-NW 16,1 C 24,2 C 4,7 km/h
02.06.2018 15:00 24,9 C 58 % 1015,1 hPa 0,0 l/m 3,2 km/h N-NO 16,1 C 24,9 C 1,8 km/h
02.06.2018 16:00 25,3 C 54 % 1014,8 hPa 0,0 l/m 0,0 km/h W 15,3 C 25,3 C 0,0 km/h
02.06.2018 17:00 25,9 C 52 % 1014,3 hPa 0,0 l/m 7,8 km/h N 15,3 C 25,6 C 4,3 km/h
02.06.2018 18:00 24,9 C 53 % 1014,2 hPa 0,0 l/m 5,2 km/h NW 14,6 C 24,9 C 2,9 km/h
02.06.2018 19:00 24,1 C 57 % 1014,2 hPa 0,0 l/m 1,3 km/h N 15,0 C 24,1 C 0,7 km/h
02.06.2018 20:00 22,7 C 62 % 1014,7 hPa 0,0 l/m 0,0 km/h SO 15,0 C 22,7 C 0,0 km/h
02.06.2018 21:00 19,6 C 72 % 1015,2 hPa 0,0 l/m 0,0 km/h SO 14,4 C 19,6 C 0,0 km/h
02.06.2018 22:00 18,2 C 76 % 1015,7 hPa 0,0 l/m 0,0 km/h O-SO 13,9 C 18,2 C 0,0 km/h
02.06.2018 23:00 17,4 C 78 % 1016,1 hPa 0,0 l/m 0,0 km/h O-SO 13,5 C 17,4 C 0,0 km/h
03.06.2018 00:00 16,2 C 81 % 1015,9 hPa 0,0 l/m 0,0 km/h NO 12,9 C 16,2 C 0,0 km/h
03.06.2018 01:00 15,5 C 83 % 1015,8 hPa 0,0 l/m 0,0 km/h O-NO 12,6 C 15,5 C 0,0 km/h
03.06.2018 02:00 15,1 C 83 % 1015,7 hPa 0,0 l/m 0,0 km/h O-NO 12,2 C 15,1 C 0,0 km/h
03.06.2018 03:00 14,9 C 83 % 1015,2 hPa 0,0 l/m 0,0 km/h O-NO 12,0 C 14,9 C 0,0 km/h
03.06.2018 04:00 14,6 C 84 % 1014,9 hPa 0,0 l/m 0,0 km/h O-NO 11,9 C 14,6 C 0,0 km/h
03.06.2018 05:00 14,1 C 84 % 1015,3 hPa 0,0 l/m 0,0 km/h O-NO 11,4 C 14,1 C 0,0 km/h
03.06.2018 06:00 14,7 C 83 % 1014,8 hPa 0,0 l/m 0,0 km/h N 11,8 C 14,7 C 0,0 km/h
03.06.2018 07:00 16,7 C 83 % 1015,4 hPa 0,0 l/m 0,0 km/h W 13,8 C 16,7 C 0,0 km/h
03.06.2018 08:00 17,9 C 83 % 1015,5 hPa 0,0 l/m 0,0 km/h NW 15,0 C 17,9 C 0,0 km/h
03.06.2018 09:00 19,6 C 79 % 1015,2 hPa 0,0 l/m 0,0 km/h NW 15,9 C 19,6 C 0,0 km/h
03.06.2018 10:00 21,5 C 77 % 1015,1 hPa 0,0 l/m 0,0 km/h W-SW 17,3 C 21,5 C 0,0 km/h
03.06.2018 11:00 23,6 C 71 % 1014,7 hPa 0,0 l/m 8,4 km/h W 18,0 C 23,0 C 4,7 km/h
03.06.2018 12:00 24,3 C 69 % 1014,0 hPa 0,0 l/m 0,0 km/h W 18,2 C 24,3 C 0,0 km/h
03.06.2018 13:00 25,6 C 66 % 1013,4 hPa 0,0 l/m 0,0 km/h N-NW 18,8 C 25,6 C 0,0 km/h
03.06.2018 14:00 26,9 C 62 % 1012,3 hPa 0,0 l/m 14,9 km/h N-NW 19,0 C 25,6 C 8,3 km/h
03.06.2018 15:00 27,8 C 57 % 1011,6 hPa 0,0 l/m 5,8 km/h N-NW 18,5 C 27,8 C 3,2 km/h
03.06.2018 16:00 27,9 C 56 % 1010,6 hPa 0,0 l/m 15,6 km/h N-NO 18,3 C 26,8 C 8,6 km/h
03.06.2018 17:00 27,4 C 56 % 1010,7 hPa 0,0 l/m 23,3 km/h SO 17,8 C 25,5 C 13,0 km/h
03.06.2018 18:00 19,9 C 82 % 1010,5 hPa 5,7 l/m 0,0 km/h O-SO 16,7 C 19,9 C 0,0 km/h
03.06.2018 19:00 21,4 C 83 % 1010,2 hPa 0,0 l/m 0,0 km/h O-SO 18,4 C 21,4 C 0,0 km/h
03.06.2018 20:00 20,8 C 82 % 1010,1 hPa 0,0 l/m 0,0 km/h N 17,6 C 20,8 C 0,0 km/h
Min-Datum _ 02.06.18 30.05.18 30.05.18 - 28.05.18 - 01.06.18 31.05.18 28.05.18
_ Min-Zeit 05:53 16:53 17:53 - 00:53 - 06:53 21:53 00:53
Minimum _ 13,7 C 49 % 1008,3 hPa - 0,0 km/h - 9,2 C 9,3 C 0,0 km/h
Max-Datum _ 30.05.18 03.06.18 01.06.18 01.06.18 31.05.18 - 28.05.18 30.05.18 31.05.18
_ Max-Zeit 16:53 04:53 23:53 18:53 21:53 - 17:53 16:53 21:53
Maximum _ 28,8 C 84 % 1017,5 hPa 7,3 l/m 27,9 km/h
O
- 19,7 C 28,5 C 15,5 km/h
O
Durchschnitt _ 20,3 C 73 % 1013,4 hPa #25,9 l/m 2,3 km/h O-NO 15,1 C 20,0 C 1,3 km/h
www.sexauwetter.de